04:15
Airports
Links
Donate
Help keep this website running!
PayPal
Bitcoin
METAR
KBKF 280358Z 36004KT 10SM BKN060 BKN110 BKN220 09/07 A2983 RMK AO2A SLP063 T00880069
Current Weather Conditions at KBKF
VFR 03:58:00 28-03-17
Automated station
Altimeter:29.83 hg
Temp:8.8°c 46°f
Dew point:6.9°c 43°f
Wind:4 knots, 4.6 mph, 2 m/s, from 360°
Visibility:10.0 statute miles
22000(BKN) Broken
11000(BKN) Broken
6000(BKN) Broken
Past METAR reports
VFR 02:58:00 28-03-17
Automated station
Altimeter:29.83 hg
Temp:9.3°c 48°f
Dew point:6.6°c 43°f
Wind:0 knots, 0 mph, 0 m/s,
Variable direction
Visibility:10.0 statute miles
22000(BKN) Broken
11000(BKN) Broken
6000(BKN) Broken
KBKF 280258Z 00000KT 10SM BKN060 BKN110 BKN220 09/07 A2983 RMK AO2A SLP072 60001 T00930066 52014
VFR 01:58:00 28-03-17
Automated station
Altimeter:29.82 hg
Temp:9.7°c 48°f
Dew point:6.6°c 43°f
Wind:0 knots, 0 mph, 0 m/s,
Variable direction
Visibility:10.0 statute miles
22000(BKN) Broken
11000(BKN) Broken
6000(BKN) Broken
KBKF 280158Z 00000KT 10SM BKN060 BKN110 BKN220 10/07 A2982 RMK AO2A SLP073 T00970066
VFR 00:58:00 28-03-17
Automated station
Altimeter:29.79 hg
Temp:9.9°c 48°f
Dew point:5.1°c 41°f
Wind:0 knots, 0 mph, 0 m/s,
Variable direction
Visibility:10.0 statute miles
22000(BKN) Broken
11000(BKN) Broken
6500(BKN) Broken
3500(FEW) A few
KBKF 280058Z 00000KT 10SM FEW035 BKN065 BKN110 BKN220 10/05 A2979 RMK AO2A PK WND 21029/20 RAB18E46 SLP067 P0001 T00990051
VFR 00:46:00 28-03-17
Automated station
Altimeter:29.79 hg
Temp:10.0°c 50°f
Dew point:4.0°c 39°f
Wind:3 knots, 3.5 mph, 2 m/s, from 120°
Visibility:10.0 statute miles
22000(BKN) Broken
11000(BKN) Broken
6500(BKN) Broken
3500(FEW) A few
KBKF 280046Z 12003KT 10SM FEW035 BKN065 BKN110 BKN220 10/04 A2979 RMK AO2A
VFR 00:18:00 28-03-17
Automated station
Altimeter:29.79 hg
Temp:13.0°c 55°f
Dew point:2.0°c 36°f
Wind:22 knots, 25.3 mph, 11 m/s, from 190°
Visibility:10.0 statute miles
22000(BKN) Broken
11000(BKN) Broken
6500(BKN) Broken
KBKF 280018Z 19022G27KT 10SM -RA BKN065 BKN110 BKN220 13/02 A2979 RMK AO2A
VFR 23:58:00 27-03-17
Automated station
Altimeter:29.78 hg
Temp:13.8°c 55°f
Dew point:0.5°c 32°f
Wind:16 knots, 18.4 mph, 8 m/s, from 160°
Visibility:10.0 statute miles
22000(BKN) Broken
12000(BKN) Broken
7000(BKN) Broken
KBKF 272358Z 16016G20KT 10SM BKN070 BKN120 BKN220 14/01 A2978 RMK AO2A SLP055 T01380005 10168 20138 57008
TAF
TAF KBKF 280105Z 2801/2907 16009KT 9000 -SHRA FEW035 BKN050 BKN100 QNH2975INS TEMPO 2801/2803 14015G20KT BECMG 2804/2805 20009KT 9999 NSW SCT050 SCT150 QNH2972INS BECMG 2808/2809 34009KT 9999 SCT010 BKN030 QNH2974INS BECMG 2817/2818 05009KT 9999 SCT020 BKN050 QNH2980INS BECMG 2820/2821 09012G18KT 9000 -TSRA OVC030CB QNH2978INS BECMG 2823/2824 12015G25KT 9000 -RA SCT010 OVC020 520009 QNH2973INS BECMG 2903/2904 07009KT 4800 -RA BR SCT009 BKN020 QNH2982INS TX10/2822Z TN00/2814Z
Forecast at KBKF
01:00 28-03-17 to 04:00 28-03-17
-SHRA
Wind:9 Knots from 160°
Visibility:5.59 statute miles
3500FEW A few
5000BKN Broken
10000BKN Broken
TEMPO 01:00 28-03-17 to 03:00 28-03-17
Wind:15 Knots from 140°
BECMG 04:00 28-03-17 to 08:00 28-03-17
NSW
Wind:9 Knots from 200°
Visibility:6.21 statute miles
5000SCT Scattered
15000SCT Scattered
BECMG 08:00 28-03-17 to 17:00 28-03-17
NSW
Wind:9 Knots from 340°
Visibility:6.21 statute miles
1000SCT Scattered
3000BKN Broken
BECMG 17:00 28-03-17 to 20:00 28-03-17
NSW
Wind:9 Knots from 50°
Visibility:6.21 statute miles
2000SCT Scattered
5000BKN Broken
BECMG 20:00 28-03-17 to 23:00 28-03-17
-TSRA
Wind:12 Knots from 90°
Visibility:5.59 statute miles
3000OVC Overcast
BECMG 23:00 28-03-17 to 03:00 29-03-17
-RA
Wind:15 Knots from 120°
Visibility:5.59 statute miles
1000SCT Scattered
2000OVC Overcast
BECMG 03:00 29-03-17 to 07:00 29-03-17
-RA BR
Wind:9 Knots from 70°
Visibility:2.98 statute miles
900SCT Scattered
2000BKN Broken